Guaranta do Norte, Brazil
Current Conditions -  °F | °C
As of 2:00 PM on Thursday 30 Oct 2014 (Local Time) from SBAT Reporting Station
Few Clouds Few Clouds  
Wind Chill: 90°   Ceiling: Unl
Heat Index: 102°   Visibility: 6mi
Dew Point: 77°   Wind: 7mph
Humidity: 66%   Direction: 320°NW
Pressure: 29.83"   Gusts: NA
Location:  9.79°S, 54.91°W
Report Text: SBAT 301700Z 32006KT 9999 FEW030 FEW035TCU 32/25 Q1010
Loading
Personal Weather Stations






























Interactive Weather Map
Tropical Storm Tracking
New forecast layout! Learn more

10-Day Weather Forecast

Advertisements
Track Severe Weather on mobile